createdAt,value
2022-12-19T00:01:43.470Z,101493.22
2022-12-19T00:04:15.443Z,101491.38
2022-12-19T00:06:44.112Z,101490.53
2022-12-19T00:09:13.093Z,101479.91
2022-12-19T00:11:40.734Z,101478.13
2022-12-19T00:14:11.477Z,101465.75
2022-12-19T00:16:38.368Z,101451.66
2022-12-19T00:19:05.439Z,101441.84
2022-12-19T00:21:35.433Z,101444.47
2022-12-19T00:24:18.416Z,101442.69
2022-12-19T00:26:50.229Z,101434.59
2022-12-19T00:29:20.574Z,101444.34
2022-12-19T00:31:47.480Z,101442.44
2022-12-19T00:34:15.139Z,101431.69
2022-12-19T00:36:42.412Z,101419.28
2022-12-19T00:39:10.521Z,101419.22
2022-12-19T00:41:42.087Z,101423.50
2022-12-19T00:44:13.853Z,101418.00
2022-12-19T00:46:40.953Z,101412.47
2022-12-19T00:49:07.791Z,101388.41
2022-12-19T00:51:37.555Z,101390.00
2022-12-19T00:54:08.048Z,101391.69
2022-12-19T00:56:38.220Z,101375.66
2022-12-19T00:59:07.000Z,101385.44
2022-12-19T01:01:37.730Z,101380.16
2022-12-19T01:06:59.767Z,101379.19
2022-12-19T01:09:34.395Z,101373.78
2022-12-19T01:12:21.032Z,101365.78
2022-12-19T01:15:03.758Z,101384.22
2022-12-19T01:17:30.982Z,101379.69
2022-12-19T01:19:57.724Z,101368.06
2022-12-19T01:22:24.469Z,101373.41
2022-12-19T01:24:51.188Z,101370.59
2022-12-19T01:27:17.876Z,101365.94
2022-12-19T01:29:52.831Z,101363.28
2022-12-19T01:32:21.773Z,101366.00
2022-12-19T01:34:48.629Z,101345.69
2022-12-19T01:37:19.871Z,101343.00
2022-12-19T01:39:47.015Z,101342.06
2022-12-19T01:42:23.542Z,101340.22
2022-12-19T01:45:02.918Z,101342.78
2022-12-19T01:47:33.113Z,101346.28
2022-12-19T01:50:03.562Z,101346.38
2022-12-19T01:52:31.267Z,101343.59
2022-12-19T01:54:58.577Z,101344.44
2022-12-19T01:57:25.616Z,101330.09
2022-12-19T02:00:00.271Z,101325.66
2022-12-19T02:02:33.544Z,101333.66
2022-12-19T02:05:03.330Z,101335.44
2022-12-19T02:07:32.743Z,101333.66
2022-12-19T02:10:00.082Z,101324.84
2022-12-19T02:12:40.133Z,101319.47
2022-12-19T02:15:10.674Z,101324.63
2022-12-19T02:17:38.123Z,101319.31
2022-12-19T02:20:27.669Z,101311.28
2022-12-19T02:23:30.718Z,101310.25
2022-12-19T02:26:16.246Z,101316.38
2022-12-19T02:29:15.544Z,101303.03
2022-12-19T02:32:02.263Z,101303.03
2022-12-19T02:34:44.652Z,101297.56
2022-12-19T02:37:33.770Z,101286.78
2022-12-19T02:40:16.541Z,101299.94
2022-12-19T02:42:50.623Z,101295.50
2022-12-19T02:45:28.500Z,101290.91
2022-12-19T02:48:03.333Z,101298.69
2022-12-19T02:50:42.815Z,101270.31
2022-12-19T02:53:14.065Z,101270.16
2022-12-19T02:56:40.141Z,101265.75
2022-12-19T02:59:58.353Z,101248.59
2022-12-19T03:02:53.162Z,101252.19
2022-12-19T03:06:18.349Z,101249.53
2022-12-19T03:09:00.258Z,101253.91
2022-12-19T03:11:35.777Z,101252.09
2022-12-19T03:14:09.896Z,101250.34
2022-12-19T03:16:38.146Z,101252.84
2022-12-19T03:19:11.779Z,101250.00
2022-12-19T03:22:02.170Z,101250.75
2022-12-19T03:24:29.245Z,101249.75
2022-12-19T03:27:21.110Z,101255.81
2022-12-19T03:30:00.581Z,101244.34
2022-12-19T03:32:31.504Z,101244.41
2022-12-19T03:35:29.104Z,101239.19
2022-12-19T03:38:02.317Z,101237.44
2022-12-19T03:40:30.179Z,101235.44
2022-12-19T03:43:12.661Z,101224.50
2022-12-19T03:45:43.711Z,101223.53
2022-12-19T03:48:43.578Z,101218.06
2022-12-19T03:51:19.018Z,101227.66
2022-12-19T03:53:57.015Z,101227.44
2022-12-19T03:56:42.365Z,101227.19
2022-12-19T03:59:34.136Z,101217.22
2022-12-19T04:02:04.414Z,101221.56
2022-12-19T04:04:37.950Z,101218.06
2022-12-19T04:07:07.775Z,101219.59
2022-12-19T04:09:38.268Z,101212.38
2022-12-19T04:12:14.544Z,101218.53
2022-12-19T04:14:42.222Z,101209.38
2022-12-19T04:17:46.545Z,101213.72
2022-12-19T04:20:20.836Z,101208.28
2022-12-19T04:23:01.435Z,101208.22
2022-12-19T04:25:36.668Z,101205.50
2022-12-19T04:28:15.768Z,101203.66
2022-12-19T04:30:45.125Z,101202.66
2022-12-19T04:33:12.049Z,101194.44
2022-12-19T04:35:39.048Z,101195.13
2022-12-19T04:38:06.641Z,101202.97
2022-12-19T04:40:40.886Z,101191.38
2022-12-19T04:43:09.390Z,101187.88
2022-12-19T04:45:36.731Z,101200.09
2022-12-19T04:48:04.144Z,101191.78
2022-12-19T04:50:33.724Z,101195.28
2022-12-19T04:53:01.202Z,101190.75
2022-12-19T04:55:28.052Z,101191.63
2022-12-19T04:57:54.807Z,101190.53
2022-12-19T05:00:21.826Z,101190.53
2022-12-19T05:02:48.725Z,101193.09
2022-12-19T05:05:16.560Z,101190.06
2022-12-19T05:07:43.294Z,101196.88
2022-12-19T05:10:10.229Z,101194.69
2022-12-19T05:12:37.352Z,101196.22
2022-12-19T05:15:05.823Z,101188.91
2022-12-19T05:17:32.558Z,101184.22
2022-12-19T05:19:59.317Z,101184.88
2022-12-19T05:22:26.116Z,101186.25
2022-12-19T05:24:52.871Z,101178.38
2022-12-19T05:27:19.659Z,101195.78
2022-12-19T05:29:46.477Z,101175.66
2022-12-19T05:32:13.244Z,101177.28
2022-12-19T05:34:39.970Z,101183.03
2022-12-19T05:37:06.673Z,101176.28
2022-12-19T05:39:33.618Z,101176.78
2022-12-19T05:42:00.597Z,101185.44
2022-12-19T05:44:27.390Z,101170.75
2022-12-19T05:46:54.345Z,101173.16
2022-12-19T05:49:21.137Z,101171.16
2022-12-19T05:51:48.434Z,101169.13
2022-12-19T05:54:15.155Z,101177.69
2022-12-19T05:56:41.856Z,101172.00
2022-12-19T05:59:08.625Z,101171.88
2022-12-19T06:01:35.507Z,101173.59
2022-12-19T06:04:02.343Z,101170.72
2022-12-19T06:06:29.099Z,101167.84
2022-12-19T06:08:58.595Z,101161.47
2022-12-19T06:11:26.831Z,101167.59
2022-12-19T06:13:53.984Z,101160.22
2022-12-19T06:16:23.203Z,101170.66
2022-12-19T06:18:50.517Z,101165.16
2022-12-19T06:21:21.784Z,101165.16
2022-12-19T06:23:49.495Z,101172.13
2022-12-19T06:26:20.513Z,101169.38
2022-12-19T06:28:55.629Z,101159.38
2022-12-19T06:31:25.017Z,101162.91
2022-12-19T06:33:52.424Z,101172.59
2022-12-19T06:36:29.207Z,101169.72
2022-12-19T06:38:59.086Z,101171.44
2022-12-19T06:41:45.863Z,101174.97
2022-12-19T06:44:17.216Z,101175.88
2022-12-19T06:46:44.583Z,101175.66
2022-12-19T06:49:12.119Z,101183.50
2022-12-19T06:51:39.257Z,101169.06
2022-12-19T06:54:06.462Z,101177.84
2022-12-19T06:56:37.943Z,101188.31
2022-12-19T06:59:06.046Z,101202.53
2022-12-19T07:01:59.533Z,101185.28
2022-12-19T07:04:43.469Z,101184.56
2022-12-19T07:07:10.346Z,101193.25
2022-12-19T07:09:37.363Z,101171.44
2022-12-19T07:12:07.433Z,101176.56
2022-12-19T07:14:34.265Z,101189.72
2022-12-19T07:17:03.258Z,101182.47
2022-12-19T07:19:32.943Z,101185.16
2022-12-19T07:22:03.706Z,101203.13
2022-12-19T07:24:31.091Z,101180.09
2022-12-19T07:26:58.537Z,101189.19
2022-12-19T07:29:25.607Z,101185.66
2022-12-19T07:31:53.030Z,101181.94
2022-12-19T07:34:20.065Z,101188.03
2022-12-19T07:36:46.888Z,101199.50
2022-12-19T07:39:13.634Z,101192.28
2022-12-19T07:41:40.461Z,101192.28
2022-12-19T07:44:08.007Z,101186.72
2022-12-19T07:46:35.544Z,101185.81
2022-12-19T07:49:02.364Z,101191.97
2022-12-19T07:51:29.373Z,101189.28
2022-12-19T07:53:56.420Z,101192.91
2022-12-19T07:56:23.248Z,101200.81
2022-12-19T07:58:51.687Z,101201.75
2022-12-19T08:01:18.820Z,101206.31
2022-12-19T08:03:45.722Z,101205.31
2022-12-19T08:06:12.488Z,101204.44
2022-12-19T08:08:39.343Z,101211.69
2022-12-19T08:11:13.196Z,101213.56
2022-12-19T08:13:46.147Z,101217.06
2022-12-19T08:16:14.616Z,101218.56
2022-12-19T08:18:41.537Z,101216.91
2022-12-19T08:21:09.667Z,101216.78
2022-12-19T08:23:36.882Z,101207.94
2022-12-19T08:26:11.514Z,101217.72
2022-12-19T08:28:38.640Z,101227.44
2022-12-19T08:31:17.293Z,101219.47
2022-12-19T08:33:44.594Z,101208.56
2022-12-19T08:36:15.009Z,101207.56
2022-12-19T08:38:42.462Z,101216.63
2022-12-19T08:41:09.594Z,101218.22
2022-12-19T08:43:36.540Z,101230.56
2022-12-19T08:46:03.411Z,101223.97
2022-12-19T08:48:32.578Z,101228.09
2022-12-19T08:51:04.631Z,101220.81
2022-12-19T08:53:35.469Z,101229.53
2022-12-19T08:56:19.731Z,101236.63
2022-12-19T08:58:47.363Z,101236.63
2022-12-19T09:01:23.896Z,101220.31
2022-12-19T09:04:21.709Z,101229.22
2022-12-19T09:06:38.127Z,101232.56
2022-12-19T09:09:05.575Z,101238.59
2022-12-19T09:11:32.535Z,101230.34
2022-12-19T09:13:59.398Z,101225.63
2022-12-19T09:16:28.438Z,101234.41
2022-12-19T09:18:58.771Z,101231.50
2022-12-19T09:21:29.201Z,101239.34
2022-12-19T09:24:07.086Z,101245.09
2022-12-19T09:26:35.705Z,101233.75
2022-12-19T09:29:03.696Z,101245.22
2022-12-19T09:31:37.503Z,101240.69
2022-12-19T09:34:04.863Z,101235.50
2022-12-19T09:36:31.922Z,101240.88
2022-12-19T09:38:59.580Z,101249.00
2022-12-19T09:42:05.489Z,101244.50
2022-12-19T09:45:09.119Z,101251.63
2022-12-19T09:47:43.758Z,101245.22
2022-12-19T09:50:35.934Z,101249.59
2022-12-19T09:53:15.738Z,101243.25
2022-12-19T09:55:46.536Z,101233.44
2022-12-19T09:58:47.094Z,101236.03
2022-12-19T10:01:29.612Z,101231.56
2022-12-19T10:04:15.705Z,101240.41
2022-12-19T10:07:21.261Z,101244.66
2022-12-19T10:12:09.152Z,101258.69
2022-12-19T10:13:25.313Z,101251.47
2022-12-19T10:16:19.388Z,101255.59
2022-12-19T10:18:57.227Z,101250.06
2022-12-19T10:25:07.977Z,101234.31
2022-12-19T10:28:48.054Z,101249.09
2022-12-19T10:31:24.288Z,101250.66
2022-12-19T10:34:21.765Z,101243.38
2022-12-19T10:37:27.192Z,101246.94
2022-12-19T10:40:27.907Z,101243.03
2022-12-19T10:43:19.097Z,101240.97
2022-12-19T10:46:02.595Z,101250.72
2022-12-19T10:48:31.066Z,101251.75
2022-12-19T10:51:00.601Z,101241.25
2022-12-19T10:53:33.500Z,101247.00
2022-12-19T10:56:12.516Z,101236.72
2022-12-19T10:58:44.374Z,101255.91
2022-12-19T11:01:22.947Z,101246.25
2022-12-19T11:04:15.175Z,101234.06
2022-12-19T11:06:50.330Z,101243.41
2022-12-19T11:09:30.799Z,101229.16
2022-12-19T11:16:01.059Z,101224.72
2022-12-19T11:20:26.996Z,101220.31
2022-12-19T11:25:14.006Z,101235.66
2022-12-19T11:29:19.481Z,101211.28
2022-12-19T11:30:38.645Z,101211.22
2022-12-19T11:30:39.347Z,101213.97
2022-12-19T11:32:44.162Z,101198.31
2022-12-19T11:35:36.612Z,101196.41
2022-12-19T11:38:06.759Z,101210.66
2022-12-19T11:40:57.095Z,101206.06
2022-12-19T11:43:44.364Z,101201.47
2022-12-19T11:46:34.314Z,101206.69
2022-12-19T11:49:44.231Z,101200.75
2022-12-19T11:53:04.147Z,101199.38
2022-12-19T11:56:16.506Z,101193.31
2022-12-19T11:58:53.019Z,101188.72
2022-12-19T12:01:35.740Z,101182.13
2022-12-19T12:04:45.391Z,101193.56
2022-12-19T12:07:38.023Z,101195.81
2022-12-19T12:15:48.514Z,101191.06
2022-12-19T12:24:41.668Z,101194.38
2022-12-19T12:25:25.854Z,101202.91
2022-12-19T12:31:39.937Z,101191.59
2022-12-19T12:31:49.077Z,101187.41
2022-12-19T12:31:53.297Z,101187.16
2022-12-19T12:31:55.330Z,101178.03
2022-12-19T12:35:38.322Z,101167.69
2022-12-19T12:38:47.682Z,101166.19
2022-12-19T12:41:57.804Z,101160.63
2022-12-19T12:44:33.189Z,101155.06
2022-12-19T12:47:27.410Z,101167.41
2022-12-19T12:50:07.165Z,101157.31
2022-12-19T12:52:47.948Z,101165.09
2022-12-19T12:55:34.562Z,101161.00
2022-12-19T12:58:01.326Z,101162.47
2022-12-19T13:00:36.422Z,101155.34
2022-12-19T13:03:16.276Z,101140.72
2022-12-19T13:05:49.263Z,101145.94
2022-12-19T13:08:48.866Z,101141.47
2022-12-19T13:11:38.368Z,101133.78
2022-12-19T13:14:26.823Z,101128.97
2022-12-19T13:16:54.838Z,101121.09
2022-12-19T13:19:50.740Z,101120.81
2022-12-19T13:22:41.874Z,101108.75
2022-12-19T13:25:46.464Z,101093.34
2022-12-19T13:28:33.562Z,101076.41
2022-12-19T13:31:18.885Z,101079.69
2022-12-19T13:33:51.900Z,101073.13
2022-12-19T13:39:48.573Z,101075.63
2022-12-19T13:40:07.401Z,101084.69
2022-12-19T13:43:09.832Z,101087.19
2022-12-19T13:45:47.750Z,101065.72
2022-12-19T13:48:26.541Z,101061.00
2022-12-19T13:50:55.533Z,101059.06
2022-12-19T13:53:26.669Z,101055.41
2022-12-19T13:56:21.296Z,101060.81
2022-12-19T13:59:02.507Z,101048.94
2022-12-19T14:01:34.447Z,101048.06
2022-12-19T14:04:35.079Z,101065.53
2022-12-19T14:07:23.858Z,101058.47
2022-12-19T14:11:33.583Z,101056.00
2022-12-19T14:13:43.060Z,101054.47
2022-12-19T14:15:52.036Z,101045.78
2022-12-19T14:18:44.546Z,101031.53
2022-12-19T14:22:09.747Z,101036.25
2022-12-19T14:24:19.461Z,101035.09
2022-12-19T14:28:16.901Z,101025.91
2022-12-19T14:30:31.006Z,101043.66
2022-12-19T14:33:45.424Z,101038.81
2022-12-19T14:36:10.695Z,101031.41
2022-12-19T14:39:27.530Z,101035.75
2022-12-19T14:41:47.628Z,101046.25
2022-12-19T14:52:35.387Z,101045.06
2022-12-19T14:54:04.858Z,101031.78
2022-12-19T14:54:10.025Z,101045.75
2022-12-19T14:54:27.814Z,101030.69
2022-12-19T14:56:12.428Z,101023.78
2022-12-19T14:58:56.240Z,101024.44
2022-12-19T15:01:29.379Z,101035.03
2022-12-19T15:04:52.764Z,101038.28
2022-12-19T15:07:08.331Z,101038.97
2022-12-19T15:11:06.968Z,101052.47
2022-12-19T15:14:53.152Z,101046.09
2022-12-19T15:16:27.009Z,101046.97
2022-12-19T15:18:59.750Z,101031.53
2022-12-19T15:21:29.484Z,101053.84
2022-12-19T15:23:56.928Z,101053.53
2022-12-19T15:26:43.015Z,101059.63
2022-12-19T15:29:19.862Z,101054.22
2022-12-19T15:31:49.314Z,101062.41
2022-12-19T15:34:37.380Z,101068.84
2022-12-19T15:37:15.327Z,101062.59
2022-12-19T15:39:44.393Z,101069.06
2022-12-19T15:42:24.869Z,101067.16
2022-12-19T15:44:55.757Z,101069.75
2022-12-19T15:47:43.718Z,101079.66
2022-12-19T15:50:25.568Z,101068.84
2022-12-19T15:52:57.111Z,101079.66
2022-12-19T15:55:29.018Z,101072.31
2022-12-19T15:58:01.315Z,101069.53
2022-12-19T16:00:34.992Z,101073.22
2022-12-19T16:05:49.115Z,101078.81
2022-12-19T16:08:20.783Z,101080.75
2022-12-19T16:11:01.459Z,101071.00
2022-12-19T16:13:35.314Z,101079.88
2022-12-19T16:16:07.974Z,101069.94
2022-12-19T16:18:42.592Z,101077.94
2022-12-19T16:21:20.158Z,101057.28
2022-12-19T16:23:47.962Z,101087.22
2022-12-19T16:26:30.869Z,101077.09
2022-12-19T16:28:58.185Z,101079.88
2022-12-19T16:31:28.001Z,101074.47
2022-12-19T16:33:55.524Z,101070.78
2022-12-19T16:36:22.695Z,101075.34
2022-12-19T16:38:49.555Z,101076.28
2022-12-19T16:41:23.011Z,101064.63
2022-12-19T16:43:51.339Z,101069.06
2022-12-19T16:46:22.178Z,101069.06
2022-12-19T16:48:50.095Z,101078.13
2022-12-19T16:51:21.600Z,101078.13
2022-12-19T16:53:54.394Z,101078.28
2022-12-19T16:56:27.113Z,101078.28
2022-12-19T16:58:55.600Z,101060.38
2022-12-19T17:01:22.571Z,101050.34
2022-12-19T17:03:49.461Z,101060.38
2022-12-19T17:06:20.814Z,101053.22
2022-12-19T17:08:49.162Z,101071.56
2022-12-19T17:11:25.983Z,101049.97
2022-12-19T17:14:08.313Z,101052.56
2022-12-19T17:16:35.354Z,101063.34
2022-12-19T17:19:02.429Z,101057.09
2022-12-19T17:21:29.378Z,101061.72
2022-12-19T17:23:56.326Z,101066.28
2022-12-19T17:26:23.422Z,101058.84
2022-12-19T17:28:51.717Z,101076.56
2022-12-19T17:31:29.027Z,101072.88
2022-12-19T17:33:58.208Z,101068.47
2022-12-19T17:36:37.075Z,101062.97
2022-12-19T17:39:33.440Z,101057.66
2022-12-19T17:42:13.679Z,101068.56
2022-12-19T17:44:40.456Z,101077.34
2022-12-19T17:47:07.388Z,101065.63
2022-12-19T17:49:34.387Z,101070.13
2022-12-19T17:52:01.166Z,101059.38
2022-12-19T17:54:27.959Z,101060.47
2022-12-19T17:56:55.619Z,101054.97
2022-12-19T17:59:22.390Z,101040.91
2022-12-19T18:01:49.576Z,101065.09
2022-12-19T18:04:21.648Z,101058.09
2022-12-19T18:06:49.326Z,101060.78
2022-12-19T18:09:22.868Z,101058.84
2022-12-19T18:11:51.479Z,101053.44
2022-12-19T18:14:19.615Z,101059.78
2022-12-19T18:16:48.348Z,101046.31
2022-12-19T18:19:21.437Z,101044.78
2022-12-19T18:21:49.158Z,101034.16
2022-12-19T18:24:16.744Z,101059.22
2022-12-19T18:26:45.215Z,101072.63
2022-12-19T18:29:13.185Z,101076.19
2022-12-19T18:31:46.480Z,101062.69
2022-12-19T18:34:22.981Z,101079.78
2022-12-19T18:36:51.251Z,101075.41
2022-12-19T18:39:23.258Z,101066.28
2022-12-19T18:41:52.020Z,101064.44
2022-12-19T18:44:19.830Z,101066.38
2022-12-19T18:46:50.144Z,101070.00
2022-12-19T18:49:17.981Z,101072.94
2022-12-19T18:51:45.122Z,101074.56
2022-12-19T18:54:18.285Z,101071.19
2022-12-19T18:56:45.930Z,101066.75
2022-12-19T18:59:13.208Z,101066.75
2022-12-19T19:01:46.294Z,101076.91
2022-12-19T19:04:17.917Z,101085.44
2022-12-19T19:06:51.798Z,101077.06
2022-12-19T19:09:21.574Z,101063.75
2022-12-19T19:12:17.592Z,101054.22
2022-12-19T19:14:44.506Z,101066.97
2022-12-19T19:17:28.628Z,101072.34
2022-12-19T19:19:55.453Z,101073.22
2022-12-19T19:22:22.309Z,101070.81
2022-12-19T19:24:49.087Z,101066.97
2022-12-19T19:27:15.867Z,101081.88
2022-12-19T19:29:42.616Z,101077.16
2022-12-19T19:32:10.276Z,101079.09
2022-12-19T19:34:40.715Z,101084.28
2022-12-19T19:37:12.034Z,101079.78
2022-12-19T19:39:38.861Z,101083.41
2022-12-19T19:42:06.105Z,101093.94
2022-12-19T19:44:32.950Z,101083.91
2022-12-19T19:47:00.154Z,101074.81
2022-12-19T19:49:27.143Z,101083.69
2022-12-19T19:51:58.713Z,101086.22
2022-12-19T19:54:29.409Z,101089.69
2022-12-19T19:56:56.153Z,101091.78
2022-12-19T19:59:22.993Z,101090.16
2022-12-19T20:01:54.253Z,101091.25
2022-12-19T20:04:21.393Z,101089.50
2022-12-19T20:06:48.422Z,101079.69
2022-12-19T20:09:15.174Z,101094.88
2022-12-19T20:11:42.004Z,101092.28
2022-12-19T20:14:09.266Z,101093.34
2022-12-19T20:16:36.147Z,101106.75
2022-12-19T20:19:03.205Z,101112.34
2022-12-19T20:21:30.760Z,101107.72
2022-12-19T20:23:57.717Z,101112.16
2022-12-19T20:26:24.498Z,101107.81
2022-12-19T20:28:51.697Z,101093.53
2022-12-19T20:31:22.185Z,101106.84
2022-12-19T20:33:50.510Z,101107.81
2022-12-19T20:36:17.832Z,101107.81
2022-12-19T20:38:44.765Z,101110.41
2022-12-19T20:41:11.608Z,101111.28
2022-12-19T20:43:39.156Z,101118.09
2022-12-19T20:46:12.116Z,101113.59
2022-12-19T20:48:39.752Z,101121.47
2022-12-19T20:51:07.804Z,101114.47
2022-12-19T20:53:37.500Z,101108.19
2022-12-19T20:56:06.510Z,101101.38
2022-12-19T20:58:37.300Z,101114.38
2022-12-19T21:01:17.501Z,101105.50
2022-12-19T21:03:44.996Z,101104.06
2022-12-19T21:06:15.077Z,101108.59
2022-12-19T21:08:42.951Z,101108.78
2022-12-19T21:11:11.456Z,101125.94
2022-12-19T21:13:39.579Z,101123.44
2022-12-19T21:16:10.953Z,101123.81
2022-12-19T21:18:40.106Z,101124.56
2022-12-19T21:21:11.183Z,101123.91
2022-12-19T21:23:38.039Z,101130.28
2022-12-19T21:26:05.114Z,101136.34
2022-12-19T21:28:33.281Z,101130.19
2022-12-19T21:31:16.273Z,101126.41
2022-12-19T21:33:44.499Z,101118.41
2022-12-19T21:36:20.275Z,101096.72
2022-12-19T21:38:50.422Z,101122.28
2022-12-19T21:41:21.505Z,101115.81
2022-12-19T21:43:53.470Z,101113.22
2022-12-19T21:46:24.874Z,101123.81
2022-12-19T21:48:54.881Z,101118.06
2022-12-19T21:51:25.699Z,101104.75
2022-12-19T21:54:00.331Z,101109.72
2022-12-19T21:56:32.334Z,101109.56
2022-12-19T21:59:05.800Z,101096.66
2022-12-19T22:01:34.359Z,101108.78
2022-12-19T22:04:08.728Z,101095.88
2022-12-19T22:06:37.857Z,101100.88
2022-12-19T22:09:08.161Z,101100.69
2022-12-19T22:11:36.911Z,101103.28
2022-12-19T22:14:05.325Z,101102.03
2022-12-19T22:16:33.881Z,101106.16
2022-12-19T22:19:01.675Z,101099.72
2022-12-19T22:21:29.053Z,101100.88
2022-12-19T22:24:03.452Z,101078.69
2022-12-19T22:26:32.197Z,101084.28
2022-12-19T22:28:59.361Z,101085.16
2022-12-19T22:31:30.361Z,101075.63
2022-12-19T22:34:10.330Z,101064.34
2022-12-19T22:36:39.808Z,101057.13
2022-12-19T22:39:11.894Z,101053.84
2022-12-19T22:41:40.169Z,101047.00
2022-12-19T22:44:14.511Z,101044.88
2022-12-19T22:46:41.254Z,101050.19
2022-12-19T22:49:08.948Z,101042.09
2022-12-19T22:51:36.939Z,101044.59
2022-12-19T22:54:05.076Z,101048.84
2022-12-19T22:56:34.411Z,101050.53
2022-12-19T22:59:05.360Z,101049.00
2022-12-19T23:01:39.324Z,101047.50
2022-12-19T23:04:09.344Z,101051.81
2022-12-19T23:06:38.470Z,101056.16
2022-12-19T23:09:07.901Z,101025.50
2022-12-19T23:11:39.873Z,101029.16
2022-12-19T23:14:09.501Z,101029.53
2022-12-19T23:16:36.432Z,101050.81
2022-12-19T23:19:05.338Z,101041.97
2022-12-19T23:21:32.614Z,101051.72
2022-12-19T23:23:59.537Z,101052.38
2022-12-19T23:26:38.213Z,101053.50
2022-12-19T23:29:09.033Z,101053.94
2022-12-19T23:31:40.003Z,101040.16
2022-12-19T23:34:06.875Z,101047.28
2022-12-19T23:39:20.566Z,101054.19
2022-12-19T23:41:47.299Z,101055.75
2022-12-19T23:44:14.423Z,101045.78
2022-12-19T23:46:41.547Z,101037.00
2022-12-19T23:49:08.416Z,101041.66
2022-12-19T23:51:35.205Z,101039.72
2022-12-19T23:54:02.123Z,101029.66
2022-12-19T23:56:32.256Z,101022.50
2022-12-19T23:58:59.907Z,101015.94
